createdAt,value
2022-11-21T00:00:57.011Z,-0.11
2022-11-21T00:03:05.054Z,-0.17
2022-11-21T00:05:13.788Z,-0.18
2022-11-21T00:07:19.555Z,-0.13
2022-11-21T00:09:30.055Z,-0.14
2022-11-21T00:11:35.822Z,-0.24
2022-11-21T00:13:42.628Z,-0.18
2022-11-21T00:15:50.367Z,-0.07
2022-11-21T00:18:14.416Z,-0.17
2022-11-21T00:20:28.906Z,-0.23
2022-11-21T00:22:41.314Z,-0.08
2022-11-21T00:24:50.494Z,-0.01
2022-11-21T00:26:58.906Z,-0.01
2022-11-21T00:29:24.971Z,-0.16
2022-11-21T00:31:31.538Z,-0.15
2022-11-21T00:33:41.640Z,-0.14
2022-11-21T00:35:51.024Z,-0.22
2022-11-21T00:37:57.043Z,-0.21
2022-11-21T00:40:20.031Z,-0.24
2022-11-21T00:42:26.696Z,-0.16
2022-11-21T00:44:38.805Z,-0.22
2022-11-21T00:46:50.796Z,-0.23
2022-11-21T00:48:57.722Z,-0.24
2022-11-21T00:51:12.597Z,-0.24
2022-11-21T00:53:18.653Z,-0.42
2022-11-21T00:55:37.451Z,-0.47
2022-11-21T00:57:43.406Z,-0.59
2022-11-21T00:59:49.201Z,-0.52
2022-11-21T01:01:56.221Z,-0.56
2022-11-21T01:04:02.693Z,-0.60
2022-11-21T01:06:13.776Z,-0.72
2022-11-21T01:08:20.483Z,-0.70
2022-11-21T01:10:26.195Z,-0.72
2022-11-21T01:12:32.102Z,-0.70
2022-11-21T01:14:38.860Z,-0.85
2022-11-21T01:16:45.371Z,-0.82
2022-11-21T01:18:52.471Z,-0.88
2022-11-21T01:21:03.236Z,-0.89
2022-11-21T01:23:11.799Z,-0.89
2022-11-21T01:25:17.853Z,-0.70
2022-11-21T01:27:26.108Z,-0.72
2022-11-21T01:29:32.168Z,-0.62
2022-11-21T01:31:38.637Z,-0.65
2022-11-21T01:33:46.622Z,-0.62
2022-11-21T01:35:52.374Z,-0.61
2022-11-21T01:37:58.195Z,-0.65
2022-11-21T01:40:08.643Z,-0.71
2022-11-21T01:42:16.785Z,-0.66
2022-11-21T01:44:27.297Z,-0.60
2022-11-21T01:46:40.977Z,-0.63
2022-11-21T01:49:15.974Z,-0.61
2022-11-21T01:51:33.348Z,-0.63
2022-11-21T01:53:45.463Z,-0.60
2022-11-21T01:55:56.671Z,-0.54
2022-11-21T01:58:04.763Z,-0.51
2022-11-21T02:00:22.183Z,-0.58
2022-11-21T02:02:35.970Z,-0.66
2022-11-21T02:04:47.512Z,-0.54
2022-11-21T02:06:55.405Z,-0.51
2022-11-21T02:09:04.545Z,-0.49
2022-11-21T02:11:24.883Z,-0.40
2022-11-21T02:13:31.533Z,-0.31
2022-11-21T02:15:41.602Z,-0.32
2022-11-21T02:17:47.481Z,-0.29
2022-11-21T02:20:01.075Z,-0.31
2022-11-21T02:22:21.557Z,-0.42
2022-11-21T02:24:41.457Z,-0.50
2022-11-21T02:26:52.588Z,-0.51
2022-11-21T02:39:53.048Z,-0.33
2022-11-21T02:44:26.069Z,-0.37
2022-11-21T02:46:34.504Z,-0.44
2022-11-21T02:48:42.081Z,-0.47
2022-11-21T02:50:50.653Z,-0.50
2022-11-21T02:53:00.093Z,-0.40
2022-11-21T02:55:06.126Z,-0.32
2022-11-21T02:57:12.049Z,-0.36
2022-11-21T02:59:21.389Z,-0.34
2022-11-21T03:01:27.329Z,-0.30
2022-11-21T03:03:36.568Z,-0.34
2022-11-21T03:05:44.316Z,-0.39
2022-11-21T03:07:50.632Z,-0.49
2022-11-21T03:09:57.353Z,-0.46
2022-11-21T03:12:09.946Z,-0.52
2022-11-21T03:14:15.907Z,-0.53
2022-11-21T03:16:24.537Z,-0.64
2022-11-21T03:18:31.309Z,-0.68
2022-11-21T03:23:11.423Z,-1.17
2022-11-21T03:25:20.929Z,-1.76
2022-11-21T03:27:38.985Z,-1.98
2022-11-21T03:29:44.795Z,-2.18
2022-11-21T03:32:04.171Z,-2.16
2022-11-21T03:34:20.234Z,-2.30
2022-11-21T03:36:26.162Z,-2.41
2022-11-21T03:38:40.895Z,-2.54
2022-11-21T03:40:46.600Z,-2.56
2022-11-21T03:42:52.291Z,-2.58
2022-11-21T03:44:59.044Z,-2.60
2022-11-21T03:47:04.810Z,-2.65
2022-11-21T03:49:11.807Z,-2.50
2022-11-21T03:51:23.698Z,-2.51
2022-11-21T03:53:29.442Z,-2.45
2022-11-21T03:55:37.860Z,-2.41
2022-11-21T03:57:44.639Z,-2.37
2022-11-21T03:59:50.489Z,-2.28
2022-11-21T04:06:31.579Z,-2.01
2022-11-21T04:08:38.367Z,-2.29
2022-11-21T04:10:50.298Z,-2.28
2022-11-21T04:12:55.998Z,-2.45
2022-11-21T04:15:02.862Z,-2.42
2022-11-21T04:17:08.784Z,-2.61
2022-11-21T04:19:14.840Z,-2.65
2022-11-21T04:21:21.612Z,-2.54
2022-11-21T04:23:31.544Z,-2.53
2022-11-21T04:25:37.758Z,-2.45
2022-11-21T04:27:44.378Z,-2.37
2022-11-21T04:29:50.239Z,-2.43
2022-11-21T04:31:56.134Z,-2.37
2022-11-21T04:34:02.867Z,-2.34
2022-11-21T04:36:17.015Z,-2.38
2022-11-21T07:26:49.542Z,-2.45
2022-11-21T07:28:56.719Z,-2.45
2022-11-21T07:31:13.164Z,-2.50
2022-11-21T07:33:23.786Z,-2.43
2022-11-21T07:35:31.965Z,-2.36
2022-11-21T07:37:42.470Z,-2.32
2022-11-21T07:39:48.227Z,-2.46
2022-11-21T07:41:57.336Z,-2.26
2022-11-21T07:44:10.054Z,-2.16
2022-11-21T07:46:36.327Z,-2.03
2022-11-21T07:48:42.838Z,-2.01
2022-11-21T07:50:48.464Z,-2.00
2022-11-21T07:52:54.110Z,-2.09
2022-11-21T07:55:02.537Z,-2.23
2022-11-21T07:57:10.963Z,-2.21
2022-11-21T07:59:19.416Z,-2.10
2022-11-21T08:01:34.145Z,-2.01
2022-11-21T08:03:39.933Z,-1.92
2022-11-21T08:05:47.727Z,-1.66
2022-11-21T08:07:55.483Z,-1.63
2022-11-21T08:10:01.206Z,-1.55
2022-11-21T08:12:26.485Z,-1.44
2022-11-21T08:14:35.201Z,-1.35
2022-11-21T08:16:56.487Z,-1.17
2022-11-21T08:19:02.840Z,-1.24
2022-11-21T16:19:04.260Z,4.60
2022-11-21T16:21:18.189Z,4.62
2022-11-21T16:23:23.909Z,4.58
2022-11-21T16:25:29.544Z,4.61
2022-11-21T16:27:36.338Z,4.50
2022-11-21T16:29:42.032Z,4.54
2022-11-21T16:31:55.313Z,4.48
2022-11-21T16:34:16.158Z,4.53
2022-11-21T16:36:26.747Z,4.54
2022-11-21T16:38:35.488Z,4.35
2022-11-21T16:40:42.435Z,4.41
2022-11-21T16:42:48.047Z,4.51
2022-11-21T16:44:56.153Z,4.50
2022-11-21T16:47:09.294Z,4.46
2022-11-21T16:49:23.766Z,4.31
2022-11-21T16:51:31.686Z,4.30
2022-11-21T16:53:38.171Z,4.28
2022-11-21T16:55:43.952Z,4.34
2022-11-21T16:57:49.830Z,4.43
2022-11-21T16:59:59.087Z,4.53
2022-11-21T17:02:07.831Z,4.45
2022-11-21T17:04:17.164Z,4.41
2022-11-21T17:06:31.262Z,4.26
2022-11-21T17:08:40.803Z,4.36
2022-11-21T17:10:46.585Z,4.36
2022-11-21T17:12:53.040Z,4.41
2022-11-21T17:14:58.678Z,4.45
2022-11-21T17:17:06.385Z,4.51
2022-11-21T17:19:16.456Z,4.56
2022-11-21T17:21:30.376Z,4.59
2022-11-21T17:23:41.925Z,4.53
2022-11-21T17:25:48.465Z,4.54
2022-11-21T17:27:54.249Z,4.48
2022-11-21T17:30:00.037Z,4.53
2022-11-21T17:32:09.384Z,4.43
2022-11-21T17:34:15.661Z,4.46
2022-11-21T17:36:24.720Z,4.39
2022-11-21T17:38:31.401Z,4.33
2022-11-21T17:40:39.777Z,4.44
2022-11-21T17:42:45.482Z,4.46
2022-11-21T17:44:52.075Z,4.51
2022-11-21T17:46:59.465Z,4.55
2022-11-21T17:49:05.474Z,4.57
2022-11-21T17:51:16.753Z,4.54
2022-11-21T17:53:22.576Z,4.46
2022-11-21T17:55:28.238Z,4.45
2022-11-21T17:57:37.330Z,4.54
2022-11-21T17:59:48.910Z,4.55
2022-11-21T18:01:54.725Z,4.64
2022-11-21T18:04:05.751Z,4.73
2022-11-21T18:06:17.748Z,4.81
2022-11-21T18:08:23.528Z,4.74
2022-11-21T18:10:43.375Z,4.67
2022-11-21T18:12:52.121Z,4.52
2022-11-21T18:14:57.800Z,4.48
2022-11-21T18:17:04.423Z,4.48
2022-11-21T18:19:10.666Z,4.43
2022-11-21T18:21:20.124Z,4.31
2022-11-21T18:34:57.566Z,4.57
2022-11-21T18:37:04.439Z,4.59
2022-11-21T18:39:14.806Z,4.60
2022-11-21T18:41:24.689Z,4.72
2022-11-21T18:43:31.423Z,4.72
2022-11-21T18:45:37.313Z,4.78
2022-11-21T18:47:43.852Z,4.81
2022-11-21T18:49:50.634Z,4.72
2022-11-21T18:51:59.810Z,4.73
2022-11-21T18:54:10.623Z,4.76
2022-11-21T18:56:19.176Z,4.78
2022-11-21T18:58:27.300Z,4.77
2022-11-21T19:00:33.258Z,4.71
2022-11-21T19:02:39.989Z,4.67
2022-11-21T19:04:45.941Z,4.67
2022-11-21T19:06:51.906Z,4.69
2022-11-21T19:09:08.520Z,4.69
2022-11-21T19:11:17.842Z,4.63
2022-11-21T19:13:24.048Z,4.70
2022-11-21T19:17:53.953Z,4.72
2022-11-21T19:22:32.125Z,4.68
2022-11-21T19:24:40.688Z,4.62
2022-11-21T19:26:47.169Z,4.71
2022-11-21T19:29:19.376Z,4.79
2022-11-21T19:31:25.247Z,4.84
2022-11-21T19:33:33.517Z,4.85
2022-11-21T19:35:40.989Z,4.73
2022-11-21T19:37:47.275Z,4.70
2022-11-21T19:39:55.781Z,4.78
2022-11-21T19:42:02.635Z,4.90
2022-11-21T19:44:08.890Z,4.69
2022-11-21T19:46:31.314Z,4.71
2022-11-21T19:48:38.275Z,4.68
2022-11-21T19:50:49.956Z,4.62
2022-11-21T19:52:58.304Z,4.56
2022-11-21T19:55:09.710Z,4.61
2022-11-21T19:57:16.068Z,4.45
2022-11-21T19:59:23.110Z,4.53
2022-11-21T20:01:34.074Z,4.63
2022-11-21T20:03:43.935Z,4.58
2022-11-21T20:05:52.342Z,4.58
2022-11-21T20:08:04.930Z,4.60
2022-11-21T20:10:17.927Z,4.54
2022-11-21T20:12:24.460Z,4.46
2022-11-21T20:14:31.678Z,4.40
2022-11-21T20:16:41.543Z,4.37
2022-11-21T20:18:47.881Z,4.40
2022-11-21T20:20:55.303Z,4.38
2022-11-21T20:23:01.739Z,4.50
2022-11-21T20:25:09.368Z,4.50
2022-11-21T20:27:19.052Z,4.49
2022-11-21T20:29:25.348Z,4.52
2022-11-21T20:31:35.291Z,4.52
2022-11-21T20:33:45.685Z,4.53
2022-11-21T20:35:51.783Z,4.49
2022-11-21T20:37:57.998Z,4.47
2022-11-21T20:40:05.275Z,4.54
2022-11-21T20:42:11.487Z,4.59
2022-11-21T20:44:57.059Z,4.68
2022-11-21T20:46:51.658Z,4.65
2022-11-21T20:49:01.275Z,4.60
2022-11-21T20:53:53.156Z,4.48
2022-11-21T20:56:05.573Z,4.53
2022-11-21T20:58:12.559Z,4.51
2022-11-21T21:00:23.077Z,4.56
2022-11-21T21:02:29.105Z,4.47
2022-11-21T21:04:35.274Z,4.38
2022-11-21T21:06:43.737Z,4.33
2022-11-21T21:08:51.429Z,4.30
2022-11-21T21:11:16.556Z,4.30
2022-11-21T21:13:33.753Z,4.28
2022-11-21T21:15:43.041Z,4.31
2022-11-21T21:17:51.474Z,4.30
2022-11-21T21:19:58.758Z,4.26
2022-11-21T21:22:05.217Z,4.06
2022-11-21T21:24:15.467Z,3.89
2022-11-21T21:26:26.421Z,3.80
2022-11-21T21:28:33.915Z,3.97
2022-11-21T21:30:45.329Z,4.00
2022-11-21T21:32:52.295Z,3.97
2022-11-21T21:34:59.366Z,3.93
2022-11-21T21:37:06.779Z,3.94
2022-11-21T21:39:15.188Z,3.91
2022-11-21T21:41:21.838Z,3.87
2022-11-21T21:43:27.929Z,3.75
2022-11-21T21:45:35.648Z,3.74
2022-11-21T21:47:44.368Z,3.35
2022-11-21T21:49:50.996Z,3.17
2022-11-21T21:51:58.010Z,3.14
2022-11-21T21:54:04.058Z,3.11
2022-11-21T21:56:11.576Z,3.13
2022-11-21T21:58:18.431Z,3.11
2022-11-21T22:00:24.764Z,3.14
2022-11-21T22:02:30.910Z,3.13
2022-11-21T22:04:40.559Z,3.02
2022-11-21T22:06:46.833Z,2.79
2022-11-21T22:08:54.606Z,2.40
2022-11-21T22:11:07.669Z,2.08
2022-11-21T22:13:14.414Z,1.98
2022-11-21T22:15:20.595Z,1.95
2022-11-21T22:17:28.172Z,1.92
2022-11-21T22:19:34.720Z,1.97
2022-11-21T22:21:43.869Z,2.07
2022-11-21T22:24:17.778Z,2.05
2022-11-21T22:26:19.476Z,2.07
2022-11-21T22:28:25.699Z,2.07
2022-11-21T22:30:32.691Z,1.97
2022-11-21T22:32:39.256Z,1.53
2022-11-21T22:34:45.424Z,1.55
2022-11-21T22:36:55.067Z,1.61
2022-11-21T22:39:01.184Z,1.49
2022-11-21T22:41:10.798Z,1.44
2022-11-21T22:43:17.768Z,1.25
2022-11-21T22:45:24.018Z,1.05
2022-11-21T22:47:30.141Z,1.12
2022-11-21T22:49:37.020Z,1.24
2022-11-21T22:51:43.329Z,1.26
2022-11-21T22:53:53.916Z,1.40
2022-11-21T22:56:03.879Z,1.45
2022-11-21T22:58:10.384Z,1.45
2022-11-21T23:00:19.602Z,1.24
2022-11-21T23:02:26.784Z,1.31
2022-11-21T23:04:35.142Z,1.44
2022-11-21T23:06:41.911Z,1.54
2022-11-21T23:08:53.126Z,1.57
2022-11-21T23:11:06.577Z,1.47
2022-11-21T23:13:12.752Z,1.45
2022-11-21T23:15:20.279Z,1.48
2022-11-21T23:17:26.645Z,1.60
2022-11-21T23:19:32.818Z,1.70
2022-11-21T23:21:39.861Z,1.68
2022-11-21T23:23:46.945Z,1.62
2022-11-21T23:25:56.970Z,1.58
2022-11-21T23:28:03.981Z,1.72
2022-11-21T23:30:12.934Z,1.46
